Time;durP1;ratioP1;P1;durP2;ratioP2;P2;SDS_P1;SDS_P2;PMS_P1;PMS_P2;Temp;Humidity;BMP_temperature;BMP_pressure;BME280_temperature;BME280_humidity;BME280_pressure;Samples;Min_cycle;Max_cycle;Signal;HPM_P1;HPM_P2
2021/06/15 00:01:58;;;;;;;4.38;2.30;;;;;;;14.27;84.15;100297.63;5096868;28;20470;-68
2021/06/15 00:04:23;;;;;;;5.22;2.85;;;;;;;14.09;85.51;100298.13;5092282;28;20024;-68
2021/06/15 00:06:49;;;;;;;4.55;2.60;;;;;;;14.00;86.73;100303.16;5094730;28;20451;-68
2021/06/15 00:09:14;;;;;;;6.13;2.63;;;;;;;13.92;86.96;100287.44;5092894;28;20024;-68
2021/06/15 00:11:40;;;;;;;4.03;2.70;;;;;;;13.94;87.12;100288.31;5094349;28;20024;-69
2021/06/15 00:14:05;;;;;;;4.35;2.55;;;;;;;14.10;87.17;100302.50;5074994;28;20040;-69
2021/06/15 00:16:31;;;;;;;4.00;2.50;;;;;;;14.02;86.95;100250.44;5093849;28;20485;-71
2021/06/15 00:18:57;;;;;;;3.95;2.40;;;;;;;14.21;86.31;100276.75;5093645;28;20039;-69
2021/06/15 00:21:23;;;;;;;9.93;2.80;;;;;;;13.81;87.24;100250.88;5093998;28;20020;-69
2021/06/15 00:23:49;;;;;;;4.03;2.30;;;;;;;14.13;86.50;100250.66;5093961;28;20032;-70
2021/06/15 00:26:14;;;;;;;4.80;2.70;;;;;;;14.40;85.92;100275.34;5093755;28;20032;-70
2021/06/15 00:28:40;;;;;;;3.40;2.10;;;;;;;14.21;85.41;100240.41;5093946;28;20103;-71
2021/06/15 00:31:05;;;;;;;6.55;2.40;;;;;;;14.47;86.06;100261.63;5093891;28;20107;-70
2021/06/15 00:33:31;;;;;;;4.00;2.35;;;;;;;14.18;85.16;100214.34;5093639;28;20032;-69
2021/06/15 00:35:56;;;;;;;4.03;2.30;;;;;;;14.57;84.76;100265.28;5093924;28;20024;-69
2021/06/15 00:38:21;;;;;;;6.28;2.55;;;;;;;14.70;84.09;100266.38;5093575;28;20021;-73
2021/06/15 00:40:47;;;;;;;11.52;2.15;;;;;;;14.81;84.06;100262.22;5093532;28;20040;-70
2021/06/15 00:43:13;;;;;;;8.85;2.30;;;;;;;14.96;83.28;100265.94;5093530;28;20583;-67
2021/06/15 00:45:38;;;;;;;4.07;2.20;;;;;;;14.85;82.98;100222.47;5093457;28;20401;-68
2021/06/15 00:48:04;;;;;;;6.72;2.10;;;;;;;14.75;83.42;100269.91;5093283;28;20024;-69
2021/06/15 00:50:30;;;;;;;4.93;2.00;;;;;;;14.72;83.81;100262.94;5093397;28;20035;-69
2021/06/15 00:52:56;;;;;;;3.72;2.10;;;;;;;14.63;84.05;100260.19;5093663;28;20028;-68
2021/06/15 00:55:24;;;;;;;4.85;1.80;;;;;;;14.75;83.71;100263.88;5092652;28;20463;-69
2021/06/15 00:57:51;;;;;;;2.67;1.70;;;;;;;14.84;83.11;100277.00;5093165;28;20028;-69
2021/06/15 01:00:18;;;;;;;8.77;2.13;;;;;;;14.94;82.66;100275.41;5093124;28;20054;-69
2021/06/15 01:02:45;;;;;;;2.92;1.80;;;;;;;15.04;83.61;100275.59;5093411;28;20070;-70
2021/06/15 01:05:15;;;;;;;4.82;1.83;;;;;;;15.19;82.70;100279.31;5092959;28;20031;-69
2021/06/15 01:07:53;;;;;;;3.60;1.90;;;;;;;15.31;82.62;100281.19;5093294;28;20020;-69
2021/06/15 01:10:31;;;;;;;3.33;1.73;;;;;;;15.04;81.76;100247.00;5092821;28;20405;-69
2021/06/15 01:13:34;;;;;;;4.30;1.63;;;;;;;15.29;81.04;100286.38;5092894;28;20075;-70
2021/06/15 01:16:04;;;;;;;4.80;2.03;;;;;;;15.17;80.69;100247.19;5092977;28;20028;-69
2021/06/15 01:18:34;;;;;;;5.18;1.90;;;;;;;15.46;80.67;100283.13;5091687;28;20024;-69
2021/06/15 01:21:06;;;;;;;4.03;2.08;;;;;;;15.57;81.26;100283.28;5092762;28;20118;-69
2021/06/15 01:23:40;;;;;;;3.60;1.80;;;;;;;15.31;79.16;100252.59;5092858;28;20110;-69
2021/06/15 01:26:40;;;;;;;5.70;1.80;;;;;;;14.97;81.29;100291.09;5091445;28;20055;-69
2021/06/15 01:29:31;;;;;;;4.15;1.55;;;;;;;14.59;82.06;100247.97;5092592;28;20093;-67
2021/06/15 01:32:07;;;;;;;2.10;1.70;;;;;;;14.23;83.69;100294.09;5029929;28;20029;-70
2021/06/15 01:34:35;;;;;;;3.75;1.67;;;;;;;14.46;83.74;100287.59;5029977;28;20037;-69
2021/06/15 01:37:09;;;;;;;5.65;1.80;;;;;;;14.54;84.11;100296.38;5013645;28;20112;-69
2021/06/15 01:39:42;;;;;;;2.00;1.50;;;;;;;14.50;83.30;100285.06;5030002;28;20026;-69
2021/06/15 01:42:17;;;;;;;3.13;1.60;;;;;;;14.34;84.06;100294.31;5029945;28;20535;-68
2021/06/15 01:44:49;;;;;;;2.90;1.73;;;;;;;14.20;84.20;100287.97;5030441;28;20061;-67
2021/06/15 01:47:15;;;;;;;1.83;1.58;;;;;;;14.08;84.70;100286.88;5030029;28;20742;-69
2021/06/15 01:49:52;;;;;;;3.22;1.60;;;;;;;13.90;86.17;100294.31;5030062;28;20461;-68
2021/06/15 01:52:22;;;;;;;2.67;1.70;;;;;;;13.84;86.58;100291.59;5029793;28;20530;-68
2021/06/15 01:54:48;;;;;;;;;;;;;;;13.67;86.68;100292.09;5029706;28;20061;-67
2021/06/15 01:57:18;;;;;;;4.00;1.85;;;;;;;13.58;87.05;100279.81;5029708;28;20430;-69
2021/06/15 01:59:45;;;;;;;1.90;1.70;;;;;;;13.72;87.23;100289.59;5029705;28;20518;-69
2021/06/15 02:02:12;;;;;;;4.25;1.75;;;;;;;13.58;88.12;100290.19;5029314;28;20034;-68
2021/06/15 02:04:42;;;;;;;3.53;1.70;;;;;;;13.41;87.97;100286.34;5028978;28;20426;-68
2021/06/15 02:07:13;;;;;;;2.80;1.65;;;;;;;13.03;88.21;100219.78;5029394;28;20036;-69
2021/06/15 02:09:43;;;;;;;2.40;1.80;;;;;;;13.40;88.49;100285.47;5084206;28;20044;-68
2021/06/15 02:12:09;;;;;;;3.65;1.70;;;;;;;13.14;88.32;100240.78;5090857;28;20378;-68
2021/06/15 02:14:35;;;;;;;3.10;1.75;;;;;;;13.49;88.80;100291.72;5091629;28;20024;-68
2021/06/15 02:17:02;;;;;;;2.47;1.80;;;;;;;13.33;89.34;100288.72;5091901;28;20084;-68
2021/06/15 02:19:32;;;;;;;3.92;1.60;;;;;;;13.34;89.33;100289.63;5091316;28;20473;-68
2021/06/15 02:22:06;;;;;;;3.22;1.70;;;;;;;13.25;89.41;100296.31;5091311;28;20028;-68
2021/06/15 02:24:38;;;;;;;2.28;1.73;;;;;;;13.30;89.98;100296.44;5089518;28;20039;-71
2021/06/15 02:27:07;;;;;;;2.88;2.17;;;;;;;13.32;89.52;100294.78;5091710;28;20028;-68
2021/06/15 02:29:33;;;;;;;2.47;1.77;;;;;;;13.22;89.58;100277.22;5091352;28;20548;-68
2021/06/15 02:32:03;;;;;;;2.67;2.05;;;;;;;13.54;88.75;100297.88;5091751;28;20115;-68
2021/06/15 02:34:30;;;;;;;2.95;1.67;;;;;;;13.50;88.79;100311.63;5091337;28;20034;-68
2021/06/15 02:36:57;;;;;;;5.20;2.05;;;;;;;13.39;89.61;100314.81;5091319;28;20077;-68
2021/06/15 02:39:33;;;;;;;3.72;1.63;;;;;;;13.40;89.70;100316.56;5089352;28;20047;-68
2021/06/15 02:41:59;;;;;;;4.43;1.90;;;;;;;13.46;89.37;100304.59;5089193;28;20036;-69
2021/06/15 02:44:29;;;;;;;2.70;1.52;;;;;;;13.60;88.97;100313.56;5091273;28;20032;-68
2021/06/15 02:46:57;;;;;;;3.35;1.83;;;;;;;13.48;88.33;100262.28;5090758;28;20024;-68
2021/06/15 02:49:27;;;;;;;2.45;1.63;;;;;;;13.67;88.60;100302.50;5091437;28;20026;-68
2021/06/15 02:52:07;;;;;;;2.03;1.58;;;;;;;13.53;89.07;100314.25;5090985;28;20398;-68
2021/06/15 02:54:38;;;;;;;3.22;1.60;;;;;;;13.66;88.74;100318.03;5091275;28;20043;-66
2021/06/15 02:57:06;;;;;;;2.25;1.70;;;;;;;13.57;88.40;100277.16;5091307;28;20528;-68
2021/06/15 02:59:32;;;;;;;3.85;2.00;;;;;;;13.73;87.94;100323.38;5091306;28;20089;-68
2021/06/15 03:01:57;;;;;;;2.67;1.75;;;;;;;13.41;89.48;100323.53;5091169;28;20028;-68
2021/06/15 03:04:22;;;;;;;4.45;1.70;;;;;;;13.58;88.75;100315.25;5091457;28;20017;-69
2021/06/15 03:06:48;;;;;;;2.95;1.80;;;;;;;13.50;89.51;100309.88;5090998;28;20035;-68
2021/06/15 03:09:15;;;;;;;4.93;1.90;;;;;;;13.51;89.32;100303.88;5090763;28;20036;-68
2021/06/15 03:12:07;;;;;;;3.03;1.73;;;;;;;13.52;89.76;100325.47;5088835;28;20093;-70
2021/06/15 03:14:34;;;;;;;3.63;1.85;;;;;;;13.46;90.26;100317.56;5090784;28;20059;-69
2021/06/15 03:17:04;;;;;;;9.38;2.03;;;;;;;13.39;90.91;100322.59;5094252;28;20550;-69
2021/06/15 03:19:54;;;;;;;3.22;1.90;;;;;;;13.11;91.20;100319.34;5095265;28;20034;-68
2021/06/15 03:22:21;;;;;;;2.97;2.00;;;;;;;13.10;91.91;100319.31;5094521;28;20455;-68
2021/06/15 03:24:54;;;;;;;4.40;2.10;;;;;;;13.07;92.52;100324.41;5095014;28;20051;-68
2021/06/15 03:27:31;;;;;;;2.58;1.90;;;;;;;13.16;92.96;100318.56;5095133;28;20021;-69
2021/06/15 03:29:58;;;;;;;5.55;2.42;;;;;;;13.28;91.68;100311.06;5082676;28;20024;-68
2021/06/15 03:32:25;;;;;;;3.53;1.58;;;;;;;13.32;91.60;100325.00;5083741;28;20540;-70
2021/06/15 03:34:53;;;;;;;5.55;2.10;;;;;;;13.25;92.50;100322.25;5090293;28;20059;-68
2021/06/15 03:37:23;;;;;;;2.97;2.00;;;;;;;13.10;92.41;100317.56;5094965;28;20387;-69
2021/06/15 03:39:51;;;;;;;3.17;2.28;;;;;;;13.06;93.23;100341.69;5091924;28;20040;-68
2021/06/15 03:42:29;;;;;;;4.18;1.90;;;;;;;13.15;92.57;100328.06;5094827;28;20029;-68
2021/06/15 03:44:59;;;;;;;5.22;2.10;;;;;;;13.33;92.48;100345.75;5074632;28;20068;-68
2021/06/15 03:47:27;;;;;;;3.85;2.20;;;;;;;13.33;92.65;100345.75;5074547;28;20020;-68
2021/06/15 03:49:54;;;;;;;2.58;2.00;;;;;;;13.29;91.66;100320.59;5074580;28;20024;-69
2021/06/15 03:52:30;;;;;;;7.25;2.17;;;;;;;13.20;92.26;100331.63;5074620;28;20390;-68
2021/06/15 03:55:00;;;;;;;5.55;2.33;;;;;;;13.25;92.53;100355.09;5075264;28;20113;-68
2021/06/15 03:57:27;;;;;;;4.30;2.20;;;;;;;13.28;93.17;100352.56;5101733;28;20123;-68
2021/06/15 03:59:55;;;;;;;5.80;2.35;;;;;;;13.51;92.46;100344.50;5105214;28;20024;-67
2021/06/15 04:02:22;;;;;;;6.00;2.17;;;;;;;13.60;90.55;100344.69;5100020;28;20028;-70
2021/06/15 04:04:50;;;;;;;3.35;1.90;;;;;;;13.54;91.23;100349.75;5091889;28;20029;-70
2021/06/15 04:07:21;;;;;;;5.75;2.03;;;;;;;13.70;91.27;100353.56;5093718;28;20082;-69
2021/06/15 04:09:48;;;;;;;5.20;1.98;;;;;;;13.61;90.69;100346.44;5090751;28;20028;-69
2021/06/15 04:12:15;;;;;;;4.50;2.20;;;;;;;13.64;91.15;100349.09;5092192;28;20040;-70
2021/06/15 04:14:48;;;;;;;4.75;2.42;;;;;;;13.75;90.04;100355.41;5093502;28;20016;-71
2021/06/15 04:17:18;;;;;;;4.65;2.20;;;;;;;13.71;89.71;100351.00;5090573;28;20024;-69
2021/06/15 04:19:47;;;;;;;2.15;1.92;;;;;;;13.80;90.11;100358.09;5094416;28;20462;-67
2021/06/15 04:22:14;;;;;;;5.00;2.17;;;;;;;13.79;90.34;100350.28;5094114;28;20036;-69
2021/06/15 04:24:46;;;;;;;5.05;2.72;;;;;;;13.64;89.89;100366.41;5093903;28;20507;-68
2021/06/15 04:27:12;;;;;;;5.07;2.28;;;;;;;13.63;89.72;100349.94;5092515;28;20461;-68
2021/06/15 04:29:37;;;;;;;7.85;2.38;;;;;;;13.46;89.34;100364.22;5091736;28;20040;-68
2021/06/15 04:32:08;;;;;;;7.25;2.75;;;;;;;13.40;90.16;100357.22;5091432;28;20044;-72
2021/06/15 04:34:39;;;;;;;8.82;2.65;;;;;;;13.68;89.50;100384.66;5091728;28;20105;-69
2021/06/15 04:37:08;;;;;;;5.30;2.80;;;;;;;13.66;88.92;100362.13;5091899;28;20055;-70
2021/06/15 04:39:51;;;;;;;7.13;2.58;;;;;;;13.85;88.73;100372.03;5092010;28;20417;-70
2021/06/15 04:42:31;;;;;;;5.28;2.30;;;;;;;14.00;88.33;100370.63;5091900;28;20036;-69
2021/06/15 04:45:01;;;;;;;6.10;2.28;;;;;;;13.68;88.35;100343.16;5091759;28;20576;-69
2021/06/15 04:47:34;;;;;;;4.70;2.20;;;;;;;13.73;89.69;100379.56;5091899;28;20020;-68
2021/06/15 04:50:24;;;;;;;3.28;2.38;;;;;;;13.67;89.02;100382.91;5091596;28;20032;-67
2021/06/15 04:52:50;;;;;;;;;;;;;;;13.79;90.57;100387.47;5092303;28;20055;-68
2021/06/15 04:55:21;;;;;;;3.55;2.13;;;;;;;13.82;89.35;100365.91;5091239;28;20412;-68
2021/06/15 04:57:47;;;;;;;6.97;2.10;;;;;;;14.02;89.37;100388.00;5091604;28;20020;-68
2021/06/15 05:00:14;;;;;;;5.97;2.40;;;;;;;13.82;88.76;100320.09;5092181;28;20044;-68
2021/06/15 05:02:40;;;;;;;2.80;1.92;;;;;;;14.10;88.41;100376.91;5093727;28;20024;-68
2021/06/15 05:05:10;;;;;;;5.95;2.05;;;;;;;14.10;88.76;100382.97;5093761;28;20115;-68
2021/06/15 05:07:36;;;;;;;3.22;2.20;;;;;;;14.15;89.02;100386.53;5093801;28;20024;-68
2021/06/15 05:10:04;;;;;;;5.32;2.90;;;;;;;14.12;89.31;100377.78;5091558;28;20036;-68
2021/06/15 05:12:34;;;;;;;5.03;2.30;;;;;;;14.06;89.11;100392.41;5093320;28;20550;-69
2021/06/15 05:15:08;;;;;;;3.88;2.38;;;;;;;13.97;89.81;100394.81;5093672;28;20075;-72
2021/06/15 05:17:34;;;;;;;4.95;2.30;;;;;;;13.94;89.75;100386.94;5093832;28;20020;-68
2021/06/15 05:20:00;;;;;;;6.78;2.63;;;;;;;13.97;90.19;100391.31;5093618;28;20036;-69
2021/06/15 05:22:28;;;;;;;4.75;2.38;;;;;;;13.91;90.32;100392.09;5093235;28;20073;-68
2021/06/15 05:24:57;;;;;;;4.03;2.10;;;;;;;13.94;90.46;100391.28;5093185;28;20036;-72
2021/06/15 05:27:26;;;;;;;2.53;2.00;;;;;;;13.78;90.94;100364.09;5093260;28;20024;-68
2021/06/15 05:29:52;;;;;;;2.58;2.30;;;;;;;13.90;90.34;100398.09;5093014;28;20497;-68
2021/06/15 05:32:19;;;;;;;2.90;2.22;;;;;;;13.78;91.42;100396.09;5093339;28;20398;-68
2021/06/15 05:34:45;;;;;;;4.57;2.72;;;;;;;13.51;91.85;100347.09;5093008;28;20028;-70
2021/06/15 05:37:11;;;;;;;6.85;2.33;;;;;;;13.89;91.89;100399.84;5093179;28;20035;-69
2021/06/15 05:39:38;;;;;;;4.05;2.35;;;;;;;13.98;92.11;100395.69;5091972;28;20062;-69
2021/06/15 05:42:05;;;;;;;5.22;2.55;;;;;;;13.92;92.40;100401.63;5092823;28;20024;-68
2021/06/15 05:44:31;;;;;;;4.47;2.50;;;;;;;13.87;92.11;100400.66;5093022;28;20023;-68
2021/06/15 05:46:57;;;;;;;3.70;2.70;;;;;;;13.98;92.94;100398.28;5093097;28;20111;-68
2021/06/15 05:49:23;;;;;;;3.83;2.13;;;;;;;14.05;91.80;100406.22;5091555;28;20019;-68
2021/06/15 05:52:01;;;;;;;3.35;2.22;;;;;;;13.95;92.23;100396.47;5092748;28;20024;-71
2021/06/15 05:54:27;;;;;;;3.50;2.53;;;;;;;13.89;92.47;100392.06;5092495;28;20058;-69
2021/06/15 05:56:52;;;;;;;8.95;2.60;;;;;;;13.86;92.87;100385.91;5093033;28;20026;-69
2021/06/15 05:59:18;;;;;;;6.63;2.67;;;;;;;14.03;94.53;100413.13;5093057;28;20028;-69
2021/06/15 06:01:43;;;;;;;4.25;2.50;;;;;;;14.08;94.35;100405.41;5092461;28;20024;-69
2021/06/15 06:04:12;;;;;;;5.80;2.67;;;;;;;14.24;93.95;100406.63;5092676;28;20031;-68
2021/06/15 06:09:23;;;;;;;4.97;2.80;;;;;;;14.22;94.35;100396.19;5092680;28;20047;-69
2021/06/15 06:11:48;;;;;;;3.92;3.00;;;;;;;14.25;94.58;100395.38;5092439;28;20024;-69
2021/06/15 06:14:14;;;;;;;3.97;2.58;;;;;;;14.28;93.91;100397.16;5092480;28;20028;-69
2021/06/15 06:16:43;;;;;;;4.88;2.60;;;;;;;14.22;93.36;100379.75;5092163;28;20020;-69
2021/06/15 06:19:14;;;;;;;5.03;2.90;;;;;;;14.39;93.85;100393.06;5092266;28;20059;-69
2021/06/15 06:21:40;;;;;;;5.70;3.13;;;;;;;14.32;94.43;100366.09;5092444;28;20028;-69
2021/06/15 06:24:07;;;;;;;6.57;3.28;;;;;;;14.53;94.32;100373.44;5092393;28;20459;-69
2021/06/15 06:26:32;;;;;;;12.73;10.90;;;;;;;14.60;93.19;100383.97;5092260;28;20481;-69
2021/06/15 06:28:58;;;;;;;5.05;3.17;;;;;;;14.69;92.32;100374.66;5092205;28;20115;-69
2021/06/15 06:31:24;;;;;;;4.75;3.38;;;;;;;14.89;91.82;100384.50;5092211;28;20498;-69
2021/06/15 06:33:49;;;;;;;5.38;3.00;;;;;;;15.01;91.45;100370.88;5092005;28;20538;-69
2021/06/15 06:36:15;;;;;;;6.00;3.08;;;;;;;15.13;89.56;100389.28;5091984;28;20031;-69
2021/06/15 06:38:41;;;;;;;4.05;2.63;;;;;;;15.19;89.07;100371.19;5092134;28;20159;-69
2021/06/15 06:41:07;;;;;;;5.05;2.92;;;;;;;15.33;87.30;100392.19;5092081;28;20055;-69
2021/06/15 06:43:33;;;;;;;4.28;2.55;;;;;;;15.43;87.91;100377.63;5091750;28;20024;-69
2021/06/15 06:45:59;;;;;;;4.10;2.60;;;;;;;15.40;86.68;100393.16;5092044;28;20032;-69
2021/06/15 06:48:26;;;;;;;2.63;2.25;;;;;;;15.41;87.52;100387.13;5091706;28;20039;-69
2021/06/15 06:50:51;;;;;;;4.32;2.70;;;;;;;15.44;88.00;100386.28;5091933;28;20028;-69
2021/06/15 06:53:17;;;;;;;5.00;2.67;;;;;;;15.43;87.63;100388.03;5091676;28;20024;-69
2021/06/15 06:55:43;;;;;;;3.92;3.28;;;;;;;15.46;87.87;100388.06;5091704;28;20030;-69
2021/06/15 06:58:10;;;;;;;4.88;2.83;;;;;;;15.64;88.36;100384.88;5091654;28;20550;-69
2021/06/15 07:00:36;;;;;;;5.10;2.53;;;;;;;15.55;86.47;100371.72;5091728;28;20478;-69
2021/06/15 07:03:01;;;;;;;4.07;2.33;;;;;;;15.62;86.61;100380.50;5091753;28;20026;-68
2021/06/15 07:05:27;;;;;;;4.13;2.67;;;;;;;15.46;86.90;100374.19;5091953;28;20032;-68
2021/06/15 07:07:52;;;;;;;3.05;2.15;;;;;;;15.53;87.38;100373.44;5091797;28;20028;-68
2021/06/15 07:10:21;;;;;;;4.60;2.60;;;;;;;15.71;87.68;100378.03;5091580;28;20467;-68
2021/06/15 07:12:48;;;;;;;5.88;3.42;;;;;;;15.81;86.89;100374.72;5091680;28;20025;-68
2021/06/15 07:15:14;;;;;;;4.97;2.50;;;;;;;15.76;86.02;100378.97;5091513;28;20032;-68
2021/06/15 07:17:39;;;;;;;7.10;2.88;;;;;;;15.81;85.41;100374.72;5091658;28;20028;-68
2021/06/15 07:20:06;;;;;;;3.08;2.22;;;;;;;15.67;85.44;100371.91;5091865;28;20032;-69
2021/06/15 07:22:32;;;;;;;5.97;2.78;;;;;;;15.79;85.33;100370.34;5091865;28;20038;-69
2021/06/15 07:24:57;;;;;;;5.70;3.15;;;;;;;15.92;84.74;100374.88;5091545;28;20028;-69
2021/06/15 07:27:24;;;;;;;3.35;2.35;;;;;;;15.65;85.83;100334.59;5091410;28;20085;-69
2021/06/15 07:29:49;;;;;;;6.57;2.55;;;;;;;16.01;85.41;100369.81;5091543;28;20028;-69
2021/06/15 07:32:15;;;;;;;3.22;2.00;;;;;;;15.89;84.69;100372.25;5091557;28;20162;-69
2021/06/15 07:34:41;;;;;;;2.95;2.30;;;;;;;15.89;84.06;100374.84;5091618;28;20513;-68
2021/06/15 07:37:07;;;;;;;3.13;2.15;;;;;;;15.78;84.84;100366.84;5091384;28;20157;-68
2021/06/15 07:39:33;;;;;;;4.75;2.60;;;;;;;15.87;83.95;100363.53;5091289;28;20025;-69
2021/06/15 07:41:59;;;;;;;4.60;2.75;;;;;;;15.95;84.98;100369.72;5091333;28;20032;-69
2021/06/15 07:44:25;;;;;;;5.55;2.60;;;;;;;16.01;84.78;100351.59;5091437;28;20028;-69
2021/06/15 07:46:51;;;;;;;3.05;2.10;;;;;;;16.24;83.39;100361.41;5091144;28;20024;-69
2021/06/15 07:49:16;;;;;;;5.57;2.78;;;;;;;16.20;84.35;100358.72;5091592;28;20028;-69
2021/06/15 07:51:44;;;;;;;3.15;2.38;;;;;;;15.84;83.19;100320.13;5090308;28;20024;-69
2021/06/15 07:54:10;;;;;;;5.70;2.50;;;;;;;16.10;81.82;100357.75;5092047;28;20044;-69
2021/06/15 07:56:35;;;;;;;4.22;2.40;;;;;;;16.21;83.61;100345.72;5100314;28;20144;-69
2021/06/15 07:59:01;;;;;;;4.68;2.63;;;;;;;16.45;82.61;100354.72;5099312;28;20028;-67
2021/06/15 08:01:26;;;;;;;4.50;2.42;;;;;;;16.29;81.28;100338.03;5091789;28;20020;-69
2021/06/15 08:03:52;;;;;;;2.65;2.15;;;;;;;16.55;79.46;100355.66;5095088;28;20393;-69
2021/06/15 08:06:17;;;;;;;3.85;2.40;;;;;;;16.60;81.90;100352.25;5092713;28;20486;-69
2021/06/15 08:08:43;;;;;;;5.15;2.35;;;;;;;16.28;79.67;100336.25;5095020;28;20024;-69
2021/06/15 08:11:08;;;;;;;3.50;2.72;;;;;;;16.39;82.21;100349.44;5094620;28;20024;-68
2021/06/15 08:13:34;;;;;;;4.95;2.47;;;;;;;16.55;81.14;100350.44;5095469;28;20060;-69
2021/06/15 08:16:00;;;;;;;2.28;2.08;;;;;;;16.36;80.04;100347.63;5094719;28;20550;-69
2021/06/15 08:18:25;;;;;;;6.07;2.40;;;;;;;16.50;79.78;100340.84;5095175;28;20408;-70
2021/06/15 08:20:53;;;;;;;9.45;2.50;;;;;;;16.56;78.87;100334.84;5095307;28;20049;-70
2021/06/15 08:23:29;;;;;;;4.03;2.30;;;;;;;16.68;78.33;100343.63;5095792;28;20555;-70
2021/06/15 08:25:55;;;;;;;3.97;2.45;;;;;;;16.54;78.73;100341.75;5094640;28;20059;-69
2021/06/15 08:28:21;;;;;;;3.20;2.20;;;;;;;16.58;79.10;100346.13;5094145;28;20038;-69
2021/06/15 08:30:48;;;;;;;4.90;2.20;;;;;;;16.78;75.77;100337.66;5094192;28;20032;-69
2021/06/15 08:33:13;;;;;;;8.32;2.50;;;;;;;16.90;77.64;100347.31;5094134;28;20089;-68
2021/06/15 08:35:39;;;;;;;3.72;1.83;;;;;;;16.82;75.41;100348.13;5092454;28;20032;-70
2021/06/15 08:38:05;;;;;;;3.28;2.13;;;;;;;16.61;76.71;100311.41;5094221;28;20095;-70
2021/06/15 08:40:31;;;;;;;4.10;2.10;;;;;;;16.73;73.98;100331.53;5094090;28;20032;-70
2021/06/15 08:42:57;;;;;;;3.33;2.30;;;;;;;16.93;75.98;100356.06;5094055;28;20035;-70
2021/06/15 08:45:24;;;;;;;5.03;2.17;;;;;;;17.02;76.80;100338.75;5092883;28;20032;-70
2021/06/15 08:47:51;;;;;;;3.17;1.90;;;;;;;17.15;74.62;100343.22;5094121;28;20043;-69
2021/06/15 08:50:20;;;;;;;5.63;1.88;;;;;;;17.23;74.02;100345.88;5094210;28;20036;-70
2021/06/15 08:52:47;;;;;;;5.30;1.88;;;;;;;17.04;75.05;100339.66;5094126;28;20028;-70
2021/06/15 08:55:14;;;;;;;2.58;1.92;;;;;;;17.07;72.58;100337.06;5093877;28;20056;-69
2021/06/15 08:57:41;;;;;;;3.20;2.05;;;;;;;17.21;74.00;100335.44;5093958;28;20119;-69
2021/06/15 09:00:09;;;;;;;4.70;2.15;;;;;;;17.35;75.03;100335.53;5091828;28;20063;-69
2021/06/15 09:02:44;;;;;;;2.22;1.98;;;;;;;17.43;72.54;100340.78;5091717;28;20134;-68
2021/06/15 09:05:12;;;;;;;4.03;2.15;;;;;;;17.37;72.63;100322.50;5091397;28;20040;-69
2021/06/15 09:08:06;;;;;;;3.50;2.10;;;;;;;17.49;71.72;100337.38;5092580;28;20032;-69
2021/06/15 09:11:00;;;;;;;6.63;2.30;;;;;;;17.56;74.82;100331.34;5089787;28;20038;-69
2021/06/15 09:13:33;;;;;;;4.53;1.88;;;;;;;17.71;72.45;100322.72;5048195;28;20107;-68
2021/06/15 09:15:59;;;;;;;4.25;2.22;;;;;;;17.69;72.17;100324.44;5044865;28;20043;-69
2021/06/15 09:18:28;;;;;;;4.93;2.10;;;;;;;17.79;72.29;100334.94;5038962;28;20042;-69
2021/06/15 09:20:58;;;;;;;5.10;2.20;;;;;;;17.90;70.17;100324.53;5048249;28;20486;-69
2021/06/15 09:23:32;;;;;;;5.05;2.40;;;;;;;18.10;71.59;100327.25;5050468;28;20112;-69
2021/06/15 09:25:58;;;;;;;4.15;2.08;;;;;;;18.08;69.28;100328.09;5050164;28;20490;-68
2021/06/15 09:28:23;;;;;;;5.30;2.30;;;;;;;18.07;68.79;100284.59;5050467;28;20035;-72
2021/06/15 09:31:00;;;;;;;3.90;1.73;;;;;;;18.17;66.63;100322.94;5049492;28;20045;-69
2021/06/15 09:33:48;;;;;;;5.10;2.30;;;;;;;18.24;66.47;100329.94;5045198;28;20037;-70
2021/06/15 09:36:13;;;;;;;4.55;1.90;;;;;;;18.38;68.54;100326.47;5011701;28;20037;-70
2021/06/15 09:38:59;;;;;;;6.82;2.00;;;;;;;18.26;66.75;100280.28;5048716;28;20169;-71
2021/06/15 09:41:38;;;;;;;6.00;1.83;;;;;;;18.54;66.32;100328.28;5046466;28;20033;-67
2021/06/15 09:44:17;;;;;;;5.82;1.92;;;;;;;18.46;66.26;100319.53;5046655;28;20564;-70
2021/06/15 09:46:55;;;;;;;2.80;1.90;;;;;;;18.47;63.03;100325.63;5046517;28;20043;-68
2021/06/15 09:49:41;;;;;;;2.60;1.83;;;;;;;18.48;66.17;100307.34;5050354;28;20045;-68
2021/06/15 09:52:16;;;;;;;2.25;1.67;;;;;;;18.70;66.64;100312.59;5083554;28;20036;-68
2021/06/15 09:54:41;;;;;;;5.18;1.90;;;;;;;18.70;65.63;100317.81;5088077;28;20556;-67
2021/06/15 09:57:13;;;;;;;11.13;2.85;;;;;;;18.68;64.55;100286.44;5087301;28;20032;-67
2021/06/15 09:59:57;;;;;;;5.75;2.42;;;;;;;18.78;66.68;100303.03;5088357;28;20040;-67
2021/06/15 10:02:23;;;;;;;8.40;4.05;;;;;;;18.55;68.73;100314.31;5066710;28;20062;-68
2021/06/15 10:04:50;;;;;;;5.85;2.40;;;;;;;18.54;66.79;100309.06;5082482;28;20493;-71
2021/06/15 10:07:25;;;;;;;2.88;2.15;;;;;;;18.17;66.82;100288.97;5084571;28;20598;-72
2021/06/15 10:09:52;;;;;;;2.00;1.80;;;;;;;18.45;66.91;100317.78;5087157;28;20040;-68
2021/06/15 10:12:18;;;;;;;2.92;1.67;;;;;;;18.38;63.47;100322.13;5069204;28;20072;-67
2021/06/15 10:14:43;;;;;;;4.05;1.60;;;;;;;18.50;63.77;100321.25;5086622;28;20116;-67
2021/06/15 10:17:11;;;;;;;3.35;1.77;;;;;;;18.26;65.43;100285.50;5089200;28;20020;-68
2021/06/15 10:19:38;;;;;;;3.20;1.80;;;;;;;18.50;64.71;100321.25;5088180;28;20036;-68
2021/06/15 10:22:04;;;;;;;3.17;2.03;;;;;;;18.53;64.54;100300.38;5089338;28;20081;-68
2021/06/15 10:24:29;;;;;;;5.07;2.00;;;;;;;18.66;64.06;100303.00;5088116;28;20020;-69
2021/06/15 10:26:55;;;;;;;3.33;1.90;;;;;;;18.57;65.27;100296.03;5090332;28;20024;-66
2021/06/15 10:29:21;;;;;;;3.53;2.10;;;;;;;18.77;64.62;100293.41;5089872;28;20036;-67
2021/06/15 10:31:49;;;;;;;3.10;2.25;;;;;;;18.90;64.63;100295.22;5086725;28;20447;-67
2021/06/15 10:34:34;;;;;;;3.20;2.00;;;;;;;18.64;64.18;100250.72;5087419;28;20020;-67
2021/06/15 10:37:00;;;;;;;3.63;1.67;;;;;;;18.99;64.05;100288.22;5084727;28;20115;-67
2021/06/15 10:39:41;;;;;;;3.17;1.90;;;;;;;19.07;61.73;100287.31;5087845;28;20111;-67
2021/06/15 10:42:16;;;;;;;2.63;1.60;;;;;;;19.22;63.01;100281.19;5089829;28;20027;-67
2021/06/15 10:45:16;;;;;;;3.63;1.85;;;;;;;19.50;63.49;100270.69;5080263;28;20055;-67
2021/06/15 10:48:07;;;;;;;2.65;1.77;;;;;;;19.49;60.89;100263.69;5088522;28;20107;-67
2021/06/15 10:50:38;;;;;;;3.13;1.70;;;;;;;19.66;60.06;100268.88;5017441;28;20080;-68
2021/06/15 10:53:08;;;;;;;4.30;1.75;;;;;;;19.59;60.22;100261.03;5013988;28;20474;-68
2021/06/15 10:56:06;;;;;;;3.35;1.67;;;;;;;19.70;63.23;100269.72;5023303;28;20046;-69
2021/06/15 10:58:32;;;;;;;3.92;1.98;;;;;;;19.65;60.25;100258.41;5020788;28;20031;-69
2021/06/15 11:01:13;;;;;;;4.38;1.77;;;;;;;19.76;59.94;100250.50;5024371;28;20037;-69
2021/06/15 11:03:50;;;;;;;3.30;2.55;;;;;;;19.88;60.89;100235.63;5025897;28;20515;-69
2021/06/15 11:06:17;;;;;;;2.97;1.95;;;;;;;19.73;59.99;100247.00;4995222;28;20507;-68
2021/06/15 11:08:43;;;;;;;6.47;4.25;;;;;;;19.81;61.67;100233.03;5028114;28;20049;-71
2021/06/15 11:11:21;;;;;;;7.82;3.58;;;;;;;19.72;59.84;100241.78;5028996;28;20030;-69
2021/06/15 11:13:50;;;;;;;3.50;2.10;;;;;;;19.58;58.95;100236.63;5026155;28;20077;-68
2021/06/15 11:16:36;;;;;;;7.07;3.08;;;;;;;19.78;61.31;100233.91;5024751;28;20072;-70
2021/06/15 11:19:08;;;;;;;5.95;2.53;;;;;;;19.99;57.98;100238.19;5026232;28;20084;-69
2021/06/15 11:21:45;;;;;;;5.72;2.60;;;;;;;19.76;57.70;100225.16;5024901;28;20131;-69
2021/06/15 11:24:25;;;;;;;4.78;1.40;;;;;;;19.86;57.81;100229.53;5024088;28;20127;-69
2021/06/15 11:26:54;;;;;;;3.85;1.50;;;;;;;19.94;56.94;100226.88;5039555;28;20131;-69
2021/06/15 11:29:39;;;;;;;4.28;1.27;;;;;;;19.98;58.18;100219.88;5087811;28;20690;-69
2021/06/15 11:32:24;;;;;;;3.08;1.70;;;;;;;19.92;59.21;100225.16;5089506;28;20482;-69
2021/06/15 11:34:52;;;;;;;6.35;1.58;;;;;;;20.04;57.51;100220.69;5089620;28;20032;-69
2021/06/15 11:37:22;;;;;;;3.10;1.40;;;;;;;19.97;58.82;100221.59;5088390;28;20517;-70
2021/06/15 11:39:49;;;;;;;1.73;1.60;;;;;;;19.81;58.14;100184.13;5079190;28;20031;-69
2021/06/15 11:42:21;;;;;;;3.63;1.90;;;;;;;20.00;59.15;100208.50;5077315;28;20035;-69